Enola, Arkansas
Current Conditions -  °F | °C
As of 12:58 AM on Sunday 21 Dec 2014 (Local Time) from KLRF Reporting Station
Clear Clear  
Wind Chill: 32°   Ceiling: Unl
Heat Index: 32°   Visibility: 10mi
Dew Point: 31°   Wind: 1mph
Humidity: 96%   Direction: 70°ENE
Pressure: 30.23"   Gusts: NA
Location:  35.2°N, 92.2°W
Report Text: KLRF 210658Z AUTO 07001KT 10SM CLR 00/00 A3023 RMK AO2 SLP242 T00001005
Loading
Personal Weather Stations






























Interactive Weather Map New forecast layout! Learn more

10-Day Weather Forecast

Advertisements
Track Severe Weather on mobile